Time;durP1;ratioP1;P1;durP2;ratioP2;P2;SDS_P1;SDS_P2;PMS_P1;PMS_P2;Temp;Humidity;BMP_temperature;BMP_pressure;BME280_temperature;BME280_humidity;BME280_pressure;Samples;Min_cycle;Max_cycle;Signal;HPM_P1;HPM_P2
2022/03/30 00:00:45;;;;;;;20.20;10.95;;;7.90;99.90;;;;;;5060246;28;20014;-87
2022/03/30 00:03:12;;;;;;;21.63;11.18;;;7.90;99.90;;;;;;5060284;28;20077;-86
2022/03/30 00:05:38;;;;;;;18.27;11.55;;;7.90;99.90;;;;;;5059943;28;20064;-88
2022/03/30 00:08:05;;;;;;;15.82;10.60;;;7.80;99.90;;;;;;5060654;28;20013;-86
2022/03/30 00:10:31;;;;;;;16.40;10.13;;;7.80;99.90;;;;;;5059967;28;20017;-86
2022/03/30 00:12:57;;;;;;;18.27;10.73;;;7.80;99.90;;;;;;5059792;28;20018;-88
2022/03/30 00:15:26;;;;;;;20.08;11.82;;;7.80;99.90;;;;;;5059997;28;20021;-89
2022/03/30 00:17:52;;;;;;;20.60;11.80;;;7.80;99.90;;;;;;5059980;28;20037;-89
2022/03/30 00:20:20;;;;;;;18.77;11.43;;;7.90;99.90;;;;;;5058638;28;20036;-86
2022/03/30 00:22:46;;;;;;;15.27;10.13;;;7.90;99.90;;;;;;5050552;28;20068;-85
2022/03/30 00:25:14;;;;;;;16.23;10.50;;;8.00;99.90;;;;;;5051730;28;20024;-86
2022/03/30 00:27:43;;;;;;;17.23;11.85;;;8.00;99.90;;;;;;5050402;28;20030;-86
2022/03/30 00:30:10;;;;;;;19.42;11.70;;;7.90;99.90;;;;;;5052170;28;20017;-87
2022/03/30 00:32:36;;;;;;;18.83;10.88;;;7.80;99.90;;;;;;5045988;28;20026;-87
2022/03/30 00:35:05;;;;;;;19.30;11.30;;;7.70;99.90;;;;;;5047297;28;20578;-84
2022/03/30 00:37:40;;;;;;;17.33;9.93;;;7.70;99.90;;;;;;5223448;23;20057;-84
2022/03/30 00:40:11;;;;;;;19.10;10.98;;;7.60;99.90;;;;;;5045957;28;20086;-88
2022/03/30 00:42:37;;;;;;;14.30;9.13;;;7.60;99.90;;;;;;5060898;28;20029;-88
2022/03/30 00:45:15;;;;;;;15.75;9.32;;;7.60;99.90;;;;;;5044349;28;20027;-87
2022/03/30 00:47:42;;;;;;;16.38;10.23;;;7.60;99.90;;;;;;5047688;28;20059;-85
2022/03/30 00:50:25;;;;;;;22.30;11.18;;;7.60;99.90;;;;;;5049366;28;20032;-85
2022/03/30 00:52:56;;;;;;;16.90;10.27;;;7.60;99.90;;;;;;5065194;28;20037;-86
2022/03/30 00:55:28;;;;;;;19.92;11.10;;;7.60;99.90;;;;;;5340999;23;20058;-84
2022/03/30 00:58:00;;;;;;;17.10;10.32;;;7.60;99.90;;;;;;5031157;28;20034;-84
2022/03/30 01:00:33;;;;;;;16.92;10.95;;;7.50;99.90;;;;;;5047954;28;20535;-87
2022/03/30 01:03:11;;;;;;;18.27;10.38;;;7.50;99.90;;;;;;5044427;28;20044;-85
2022/03/30 01:05:37;;;;;;;22.02;10.07;;;7.40;99.90;;;;;;5044313;28;20509;-87
2022/03/30 01:08:14;;;;;;;18.70;10.20;;;7.40;99.90;;;;;;5045709;28;20037;-85
2022/03/30 01:10:43;;;;;;;16.35;9.23;;;7.40;99.90;;;;;;5054477;23;20025;-85
2022/03/30 01:13:15;;;;;;;16.23;10.18;;;7.40;99.90;;;;;;5012131;28;20034;-88
2022/03/30 01:15:58;;;;;;;19.25;10.13;;;7.30;99.90;;;;;;5144794;22;20051;-87
2022/03/30 01:18:50;;;;;;;18.75;10.52;;;7.20;99.90;;;;;;5068785;28;20402;-86
2022/03/30 01:21:17;;;;;;;17.25;10.30;;;7.10;99.90;;;;;;5084806;28;20041;-85
2022/03/30 01:23:42;;;;;;;20.35;10.25;;;7.00;99.90;;;;;;5086399;28;20027;-84
2022/03/30 01:28:45;;;;;;;14.93;9.60;;;7.00;99.90;;;;;;5049225;22;20053;-85
2022/03/30 01:33:58;;;;;;;15.73;9.98;;;7.00;99.90;;;;;;5045236;28;20040;-85
2022/03/30 01:36:26;;;;;;;17.35;11.07;;;7.00;99.90;;;;;;5025669;28;20029;-86
2022/03/30 01:38:52;;;;;;;16.65;9.90;;;6.90;99.90;;;;;;5021807;28;20056;-90
2022/03/30 01:41:18;;;;;;;17.63;9.85;;;6.90;99.90;;;;;;5025083;28;20033;-86
2022/03/30 01:43:43;;;;;;;16.15;10.18;;;6.90;99.90;;;;;;5022811;28;20387;-89
2022/03/30 01:46:09;;;;;;;15.07;9.45;;;6.90;99.90;;;;;;5041602;28;20022;-88
2022/03/30 01:48:35;;;;;;;15.32;9.73;;;6.90;99.90;;;;;;5022161;28;20030;-89
2022/03/30 01:51:01;;;;;;;16.65;9.85;;;7.00;99.90;;;;;;5036478;28;20028;-89
2022/03/30 01:53:27;;;;;;;18.25;10.85;;;7.00;99.90;;;;;;5019030;28;20434;-90
2022/03/30 01:55:53;;;;;;;15.65;9.35;;;7.00;99.90;;;;;;5019102;28;20490;-88
2022/03/30 01:58:18;;;;;;;17.45;10.32;;;6.90;99.90;;;;;;5035834;28;20022;-89
2022/03/30 02:00:45;;;;;;;15.95;9.40;;;6.90;99.90;;;;;;5018249;28;20403;-88
2022/03/30 02:03:12;;;;;;;17.90;9.77;;;6.80;99.90;;;;;;5039945;28;20056;-90
2022/03/30 02:05:40;;;;;;;15.15;9.07;;;6.80;99.90;;;;;;5039191;28;20094;-89
2022/03/30 02:08:09;;;;;;;15.60;9.85;;;6.80;99.90;;;;;;5039531;28;20098;-89
2022/03/30 02:10:35;;;;;;;19.92;10.85;;;6.90;99.90;;;;;;5022334;28;20038;-89
2022/03/30 02:13:01;;;;;;;18.63;10.15;;;6.80;99.90;;;;;;5020819;28;20113;-88
2022/03/30 02:15:29;;;;;;;18.98;10.00;;;6.70;99.90;;;;;;5021192;28;20057;-88
2022/03/30 02:17:54;;;;;;;17.35;10.60;;;6.80;99.90;;;;;;5019378;28;20056;-90
2022/03/30 02:20:20;;;;;;;16.55;10.13;;;6.70;99.90;;;;;;5021587;28;20025;-88
2022/03/30 02:22:45;;;;;;;18.77;11.23;;;6.70;99.90;;;;;;5043321;28;20040;-87
2022/03/30 02:25:11;;;;;;;16.48;9.93;;;6.60;99.90;;;;;;5020516;28;20033;-88
2022/03/30 02:27:38;;;;;;;17.80;9.93;;;6.60;99.90;;;;;;5020121;28;20056;-89
2022/03/30 02:30:05;;;;;;;17.08;9.75;;;6.50;99.90;;;;;;5015280;28;20511;-88
2022/03/30 02:32:31;;;;;;;14.73;8.82;;;6.40;99.90;;;;;;5017046;28;20092;-88
2022/03/30 02:34:56;;;;;;;14.63;9.20;;;6.30;99.90;;;;;;5018909;28;20022;-89
2022/03/30 02:37:22;;;;;;;18.08;9.90;;;6.30;99.90;;;;;;5016856;28;20041;-87
2022/03/30 02:39:54;;;;;;;17.60;9.90;;;6.30;99.90;;;;;;5002071;28;20030;-87
2022/03/30 02:42:43;;;;;;;16.98;9.82;;;6.30;99.90;;;;;;5021075;28;20555;-84
2022/03/30 02:45:11;;;;;;;20.02;10.15;;;6.20;99.90;;;;;;5025187;28;20568;-89
2022/03/30 02:50:28;;;;;;;20.58;10.60;;;6.00;99.90;;;;;;5025057;28;20041;-86
2022/03/30 02:52:54;;;;;;;19.88;9.65;;;6.00;99.90;;;;;;5022747;28;20165;-87
2022/03/30 02:55:20;;;;;;;17.27;10.23;;;6.10;99.90;;;;;;5017986;28;20049;-89
2022/03/30 02:57:46;;;;;;;14.90;9.48;;;6.10;99.90;;;;;;5018866;28;20069;-86
2022/03/30 03:00:15;;;;;;;17.25;9.18;;;6.20;99.90;;;;;;5020754;28;20018;-85
2022/03/30 03:02:42;;;;;;;18.52;10.32;;;6.10;99.90;;;;;;5020817;28;20037;-87
2022/03/30 03:05:08;;;;;;;16.83;9.60;;;6.10;99.90;;;;;;5016403;28;20018;-87
2022/03/30 03:07:33;;;;;;;17.65;10.60;;;6.00;99.90;;;;;;5019567;28;20041;-87
2022/03/30 03:10:01;;;;;;;22.20;11.55;;;6.00;99.90;;;;;;5022653;28;20097;-88
2022/03/30 03:12:28;;;;;;;16.08;9.35;;;5.90;99.90;;;;;;5023367;28;20026;-89
2022/03/30 03:14:58;;;;;;;17.73;10.35;;;5.90;99.90;;;;;;5005592;28;20026;-87
2022/03/30 03:17:24;;;;;;;14.27;9.77;;;5.90;99.90;;;;;;5024273;28;20354;-89
2022/03/30 03:19:50;;;;;;;17.05;9.50;;;5.90;99.90;;;;;;5021255;28;20432;-86
2022/03/30 03:22:16;;;;;;;17.05;9.32;;;5.80;99.90;;;;;;5022036;28;20110;-86
2022/03/30 03:24:42;;;;;;;17.92;10.18;;;5.80;99.90;;;;;;5023479;28;20026;-85
2022/03/30 03:27:10;;;;;;;23.55;11.98;;;5.80;99.90;;;;;;5032634;28;20061;-88
2022/03/30 03:29:35;;;;;;;21.00;10.13;;;5.70;99.90;;;;;;5028796;28;20020;-88
2022/03/30 03:32:03;;;;;;;16.77;10.32;;;5.60;99.90;;;;;;5028377;28;20025;-86
2022/03/30 03:34:28;;;;;;;19.92;9.95;;;5.60;99.90;;;;;;5028822;28;20040;-87
2022/03/30 03:36:54;;;;;;;18.83;9.75;;;5.50;99.90;;;;;;5029518;28;20438;-86
2022/03/30 03:39:20;;;;;;;17.35;10.13;;;5.50;99.90;;;;;;5027406;28;20052;-85
2022/03/30 03:41:45;;;;;;;16.48;9.23;;;5.50;99.90;;;;;;5044633;28;20030;-85
2022/03/30 03:44:11;;;;;;;16.13;9.93;;;5.50;99.90;;;;;;5025752;28;20160;-88
2022/03/30 03:46:40;;;;;;;16.88;10.00;;;5.50;99.90;;;;;;5043954;28;20047;-86
2022/03/30 03:49:06;;;;;;;18.02;9.88;;;5.50;99.90;;;;;;5045600;28;20036;-86
2022/03/30 03:51:33;;;;;;;21.10;10.07;;;5.40;99.90;;;;;;5046691;28;20092;-86
2022/03/30 03:53:59;;;;;;;19.33;10.65;;;5.40;99.90;;;;;;5045247;28;20022;-88
2022/03/30 03:56:26;;;;;;;16.83;9.85;;;5.40;99.90;;;;;;5023661;28;20060;-90
2022/03/30 03:58:56;;;;;;;17.90;10.50;;;5.40;99.90;;;;;;5027701;28;20018;-85
2022/03/30 04:01:23;;;;;;;15.80;8.68;;;5.40;99.90;;;;;;5028695;28;20037;-87
2022/03/30 04:03:49;;;;;;;19.15;10.25;;;5.40;99.90;;;;;;5046316;28;20029;-86
2022/03/30 04:06:15;;;;;;;15.85;8.88;;;5.40;99.90;;;;;;5029974;28;20032;-86
2022/03/30 04:08:41;;;;;;;19.40;10.63;;;5.40;99.90;;;;;;5044270;28;20055;-86
2022/03/30 04:11:07;;;;;;;18.52;9.57;;;5.30;99.90;;;;;;5011147;28;20017;-88
2022/03/30 04:13:36;;;;;;;16.90;9.32;;;5.30;99.90;;;;;;5025356;28;20036;-88
2022/03/30 04:16:02;;;;;;;16.45;8.70;;;5.20;99.90;;;;;;5025527;28;20030;-86
2022/03/30 04:18:28;;;;;;;17.27;9.02;;;5.20;99.90;;;;;;4995698;28;20518;-86
2022/03/30 04:20:53;;;;;;;14.93;9.15;;;5.20;99.90;;;;;;5027409;28;20025;-85
2022/03/30 04:23:23;;;;;;;19.15;10.00;;;5.40;99.90;;;;;;5043563;28;20037;-85
2022/03/30 04:25:50;;;;;;;19.95;9.70;;;5.40;99.90;;;;;;5011190;28;20025;-87
2022/03/30 04:28:17;;;;;;;17.90;10.70;;;5.40;99.90;;;;;;5024860;28;20077;-85
2022/03/30 04:30:49;;;;;;;18.48;9.75;;;5.30;99.90;;;;;;5024683;28;20038;-88
2022/03/30 04:33:15;;;;;;;15.63;9.70;;;5.40;99.90;;;;;;5024596;28;20077;-85
2022/03/30 04:35:41;;;;;;;14.60;8.65;;;5.40;99.90;;;;;;5025829;28;20030;-89
2022/03/30 04:38:06;;;;;;;15.35;9.18;;;5.30;99.90;;;;;;5025225;28;20033;-85
2022/03/30 04:40:34;;;;;;;19.23;9.98;;;5.20;99.90;;;;;;5024843;28;20045;-84
2022/03/30 04:43:00;;;;;;;17.40;9.98;;;5.20;99.90;;;;;;5023952;28;20114;-86
2022/03/30 04:45:34;;;;;;;16.23;10.18;;;5.20;99.90;;;;;;5023973;28;20021;-86
2022/03/30 04:48:00;;;;;;;13.65;8.95;;;5.30;99.90;;;;;;5018002;28;20087;-89
2022/03/30 04:50:27;;;;;;;16.02;9.05;;;5.30;99.90;;;;;;5014236;28;20018;-90
2022/03/30 04:52:52;;;;;;;17.65;10.68;;;5.20;99.90;;;;;;5013835;28;20040;-90
2022/03/30 04:55:19;;;;;;;17.58;10.00;;;5.10;99.90;;;;;;5015184;28;20471;-90
2022/03/30 04:57:45;;;;;;;17.55;10.35;;;5.20;99.90;;;;;;5015174;28;20049;-91
2022/03/30 05:00:11;;;;;;;18.17;10.30;;;5.20;99.90;;;;;;5015686;28;20037;-90
2022/03/30 05:02:38;;;;;;;21.48;10.80;;;5.30;99.90;;;;;;5014725;28;20060;-89
2022/03/30 05:05:06;;;;;;;19.45;10.70;;;5.30;99.90;;;;;;5016004;28;20483;-89
2022/03/30 05:07:32;;;;;;;17.13;10.20;;;5.40;99.90;;;;;;5014740;28;20042;-88
2022/03/30 05:09:58;;;;;;;16.98;10.05;;;5.40;99.90;;;;;;5016122;28;20480;-90
2022/03/30 05:12:24;;;;;;;15.23;9.35;;;5.40;99.90;;;;;;5022549;28;20033;-88
2022/03/30 05:14:49;;;;;;;14.85;9.00;;;5.20;99.90;;;;;;5021144;28;20050;-88
2022/03/30 05:17:16;;;;;;;15.25;9.55;;;5.10;99.90;;;;;;5021551;28;20094;-86
2022/03/30 05:19:44;;;;;;;15.15;8.95;;;5.00;99.90;;;;;;5019736;28;20026;-92
2022/03/30 05:22:10;;;;;;;17.02;8.75;;;4.90;99.90;;;;;;5014623;28;20064;-90
2022/03/30 05:24:36;;;;;;;16.63;9.55;;;4.90;99.90;;;;;;5013977;28;20788;-87
2022/03/30 05:27:02;;;;;;;17.73;9.93;;;4.90;99.90;;;;;;5013493;28;20064;-89
2022/03/30 05:29:27;;;;;;;17.48;10.80;;;4.90;99.90;;;;;;5014068;28;20064;-88
2022/03/30 05:31:53;;;;;;;19.40;10.80;;;4.80;99.90;;;;;;5012817;28;20029;-86
2022/03/30 05:34:19;;;;;;;16.55;10.00;;;4.80;99.90;;;;;;5018644;28;20052;-89
2022/03/30 05:36:44;;;;;;;16.90;9.80;;;4.80;99.90;;;;;;5013828;28;20037;-89
2022/03/30 05:39:11;;;;;;;17.23;10.18;;;4.70;99.90;;;;;;5018164;28;20032;-85
2022/03/30 05:41:38;;;;;;;18.38;11.00;;;4.70;99.90;;;;;;5016638;28;20026;-88
2022/03/30 05:44:08;;;;;;;19.63;11.18;;;4.60;99.90;;;;;;5020910;28;20111;-88
2022/03/30 05:46:35;;;;;;;17.98;11.20;;;4.60;99.90;;;;;;4996948;28;20065;-86
2022/03/30 05:49:00;;;;;;;21.60;11.80;;;4.70;99.90;;;;;;4996085;28;20053;-87
2022/03/30 05:51:26;;;;;;;19.90;12.35;;;4.80;99.90;;;;;;4998057;28;20018;-89
2022/03/30 05:53:52;;;;;;;23.88;12.25;;;4.80;99.90;;;;;;4998462;28;20084;-88
2022/03/30 05:56:59;;;;;;;18.30;10.52;;;4.70;99.90;;;;;;5015466;28;20029;-90
2022/03/30 05:59:05;;;;;;;20.08;11.90;;;4.60;99.90;;;;;;5015327;28;20034;-87
2022/03/30 06:01:31;;;;;;;20.83;10.30;;;4.70;99.90;;;;;;4997846;28;20040;-88
2022/03/30 06:03:57;;;;;;;17.15;10.82;;;4.70;99.90;;;;;;5006181;28;20018;-90
2022/03/30 06:06:23;;;;;;;17.17;11.10;;;4.50;99.90;;;;;;4998469;28;20388;-89
2022/03/30 06:08:48;;;;;;;21.85;11.60;;;4.40;99.90;;;;;;4998491;28;20026;-89
2022/03/30 06:11:14;;;;;;;21.40;10.50;;;4.30;99.90;;;;;;5017241;28;20018;-89
2022/03/30 06:13:39;;;;;;;17.38;10.90;;;4.20;99.90;;;;;;5000023;28;20618;-89
2022/03/30 06:16:05;;;;;;;19.25;10.50;;;4.20;99.90;;;;;;4997860;28;20029;-89
2022/03/30 06:18:31;;;;;;;18.25;10.80;;;4.20;99.90;;;;;;4998312;28;20026;-88
2022/03/30 06:20:56;;;;;;;15.80;10.20;;;4.20;99.90;;;;;;4997850;28;20028;-89
2022/03/30 06:23:22;;;;;;;18.73;10.40;;;4.30;99.90;;;;;;4998085;28;20069;-85
2022/03/30 06:25:48;;;;;;;17.23;9.57;;;4.30;99.90;;;;;;5015605;28;20029;-89
2022/03/30 06:28:13;;;;;;;20.40;9.40;;;4.30;99.90;;;;;;5013069;28;20050;-89
2022/03/30 06:30:40;;;;;;;15.27;8.98;;;4.40;99.90;;;;;;5018220;28;20014;-88
2022/03/30 06:33:06;;;;;;;18.30;8.93;;;4.40;99.90;;;;;;5017589;28;20030;-88
2022/03/30 06:35:31;;;;;;;16.95;9.50;;;4.50;99.90;;;;;;5017800;28;20047;-86
2022/03/30 06:37:57;;;;;;;18.42;10.02;;;4.50;99.90;;;;;;5020149;28;20026;-86
2022/03/30 06:40:23;;;;;;;15.90;9.88;;;4.50;99.90;;;;;;5040732;28;20025;-86
2022/03/30 06:42:49;;;;;;;16.25;9.57;;;4.50;99.90;;;;;;5019566;28;20033;-89
2022/03/30 06:45:15;;;;;;;20.08;11.05;;;4.60;99.90;;;;;;5040195;28;20320;-89
2022/03/30 06:47:41;;;;;;;18.63;10.13;;;4.70;99.90;;;;;;5022648;28;20017;-88
2022/03/30 06:50:07;;;;;;;16.75;10.40;;;4.70;99.90;;;;;;5038982;28;20079;-87
2022/03/30 06:52:38;;;;;;;18.25;10.00;;;4.80;99.90;;;;;;5047431;23;20057;-84
2022/03/30 06:55:05;;;;;;;17.42;9.63;;;4.90;99.90;;;;;;5024393;28;20508;-89
2022/03/30 06:57:31;;;;;;;17.38;9.45;;;5.00;99.90;;;;;;5022979;28;20502;-87
2022/03/30 06:59:58;;;;;;;17.70;9.23;;;5.10;99.90;;;;;;5024712;28;20081;-87
2022/03/30 07:02:23;;;;;;;17.70;9.90;;;5.20;99.90;;;;;;5029195;28;20030;-89
2022/03/30 07:04:49;;;;;;;25.25;12.27;;;5.30;99.90;;;;;;5029194;28;20031;-91
2022/03/30 07:10:18;;;;;;;16.20;9.20;;;5.70;99.90;;;;;;5051767;23;20065;-87
2022/03/30 07:12:49;;;;;;;14.35;9.32;;;5.90;99.90;;;;;;5223394;23;20041;-86
2022/03/30 07:15:28;;;;;;;18.25;9.60;;;6.10;99.90;;;;;;5056284;28;20058;-84
2022/03/30 07:18:13;;;;;;;16.58;9.55;;;6.20;99.90;;;;;;5089391;28;20016;-85
2022/03/30 07:20:45;;;;;;;12.68;8.02;;;6.40;99.90;;;;;;5107295;22;20045;-85
2022/03/30 07:23:14;;;;;;;16.85;9.05;;;6.50;99.90;;;;;;5029363;28;20121;-84
2022/03/30 07:25:40;;;;;;;19.67;8.90;;;6.60;99.90;;;;;;5012489;28;20026;-88
2022/03/30 07:28:06;;;;;;;13.57;8.95;;;6.80;99.90;;;;;;5108151;22;20108;-86
2022/03/30 07:30:32;;;;;;;19.27;8.48;;;6.90;99.90;;;;;;5063374;28;20021;-87
2022/03/30 07:32:59;;;;;;;14.75;8.27;;;7.00;99.90;;;;;;5081223;28;20035;-86
2022/03/30 07:35:32;;;;;;;13.50;8.35;;;7.20;99.90;;;;;;5081363;28;20048;-87
2022/03/30 07:41:22;;;;;;;15.80;8.45;;;7.20;99.90;;;;;;5081258;28;20110;-88
2022/03/30 07:43:48;;;;;;;16.83;9.02;;;7.20;99.90;;;;;;5064092;28;20009;-90
2022/03/30 07:46:15;;;;;;;16.80;9.02;;;7.20;99.90;;;;;;5063874;28;20068;-90
2022/03/30 07:48:41;;;;;;;13.10;8.48;;;7.20;99.90;;;;;;5063929;28;20024;-91
2022/03/30 07:51:07;;;;;;;13.40;8.45;;;7.20;99.90;;;;;;5063885;28;20048;-89
2022/03/30 07:53:32;;;;;;;16.80;8.68;;;7.20;99.90;;;;;;5080826;28;20005;-91
2022/03/30 07:55:58;;;;;;;17.00;9.85;;;7.30;99.90;;;;;;5080671;28;20020;-88
2022/03/30 07:58:25;;;;;;;18.95;10.18;;;7.40;99.90;;;;;;5063566;28;20026;-90
2022/03/30 08:00:51;;;;;;;16.25;10.30;;;7.40;99.90;;;;;;5080728;28;20014;-91
2022/03/30 08:03:17;;;;;;;19.30;9.18;;;7.40;99.90;;;;;;5063410;28;20025;-95
2022/03/30 08:05:43;;;;;;;16.65;9.43;;;7.50;99.90;;;;;;5062966;28;20052;-91
2022/03/30 08:08:09;;;;;;;16.25;8.82;;;7.60;99.90;;;;;;5063058;28;20013;-89
2022/03/30 08:10:37;;;;;;;18.88;10.60;;;7.70;99.90;;;;;;5061638;28;20035;-89
2022/03/30 08:13:04;;;;;;;17.90;10.80;;;7.80;99.90;;;;;;5051087;28;20013;-89
2022/03/30 08:15:30;;;;;;;19.60;11.45;;;7.90;99.90;;;;;;5050909;28;20021;-88
2022/03/30 08:17:56;;;;;;;18.70;10.90;;;8.00;99.90;;;;;;5059042;28;20043;-88
2022/03/30 08:23:07;;;;;;;22.60;10.98;;;8.00;99.90;;;;;;5077100;28;20070;-93
2022/03/30 08:25:33;;;;;;;22.02;12.85;;;8.00;99.90;;;;;;5066577;28;20034;-91
2022/03/30 08:27:59;;;;;;;19.65;11.43;;;8.00;99.90;;;;;;5066403;28;20052;-90
2022/03/30 08:30:28;;;;;;;23.02;11.35;;;8.00;99.90;;;;;;5049041;28;20069;-90
2022/03/30 08:32:54;;;;;;;26.58;11.98;;;8.20;99.90;;;;;;5048869;28;20081;-89
2022/03/30 08:35:22;;;;;;;19.33;10.38;;;8.30;99.90;;;;;;5045719;28;20021;-88
2022/03/30 08:37:48;;;;;;;22.23;12.05;;;8.30;99.90;;;;;;5063798;28;20025;-87
2022/03/30 08:40:14;;;;;;;20.55;11.82;;;8.40;99.90;;;;;;5067915;28;20092;-86
2022/03/30 08:42:41;;;;;;;19.48;10.60;;;8.40;99.90;;;;;;5061936;28;20033;-90
2022/03/30 08:45:09;;;;;;;21.38;10.98;;;8.50;99.90;;;;;;5067069;28;20021;-89
2022/03/30 08:47:35;;;;;;;17.45;10.70;;;8.70;99.90;;;;;;5065988;28;20074;-88
2022/03/30 08:50:04;;;;;;;16.27;10.27;;;8.90;99.90;;;;;;5047964;28;20116;-91
2022/03/30 08:52:31;;;;;;;20.85;10.13;;;9.10;99.90;;;;;;5046641;28;20032;-85
2022/03/30 08:54:59;;;;;;;16.75;10.52;;;9.30;99.90;;;;;;5064187;28;20029;-87
2022/03/30 08:57:25;;;;;;;13.95;8.82;;;9.60;99.90;;;;;;5044258;28;20033;-88
2022/03/30 09:00:04;;;;;;;13.45;8.88;;;9.70;99.90;;;;;;5059018;28;20017;-89
2022/03/30 09:02:37;;;;;;;14.32;7.93;;;9.90;99.90;;;;;;5058821;28;20057;-85
2022/03/30 09:05:16;;;;;;;12.57;8.80;;;10.00;99.90;;;;;;5058332;28;20025;-90
2022/03/30 09:07:44;;;;;;;12.68;7.95;;;10.20;99.90;;;;;;5040638;28;20029;-89
2022/03/30 09:10:18;;;;;;;13.80;8.65;;;10.20;99.90;;;;;;5041112;28;20021;-88
2022/03/30 09:12:47;;;;;;;12.68;8.55;;;10.10;99.90;;;;;;5055433;28;20044;-89
2022/03/30 09:15:14;;;;;;;13.88;9.10;;;10.00;99.90;;;;;;5059066;28;20095;-88
2022/03/30 09:17:41;;;;;;;14.57;7.95;;;10.00;99.90;;;;;;5060436;28;20021;-88
2022/03/30 09:20:14;;;;;;;12.38;7.80;;;10.10;99.90;;;;;;5046635;28;20033;-89
2022/03/30 09:22:44;;;;;;;13.38;8.00;;;10.20;99.90;;;;;;5065990;28;20040;-89
2022/03/30 09:25:13;;;;;;;13.07;7.60;;;10.30;99.90;;;;;;5049778;28;20021;-85
2022/03/30 09:27:44;;;;;;;13.75;7.50;;;10.30;99.90;;;;;;5067257;28;20044;-84
2022/03/30 09:30:17;;;;;;;13.65;7.32;;;10.50;99.90;;;;;;5042202;28;20052;-88
2022/03/30 09:32:45;;;;;;;14.00;7.93;;;10.60;99.90;;;;;;5040668;28;20473;-87
2022/03/30 09:35:24;;;;;;;12.02;7.55;;;10.80;99.90;;;;;;5036070;28;20021;-89
2022/03/30 09:38:06;;;;;;;10.65;6.38;;;10.90;99.90;;;;;;5037351;28;20025;-88
2022/03/30 09:40:55;;;;;;;12.85;7.75;;;11.00;99.90;;;;;;5035604;28;20087;-90
2022/03/30 09:43:34;;;;;;;10.50;7.05;;;11.10;99.90;;;;;;5017188;28;20044;-88
2022/03/30 09:46:05;;;;;;;11.75;7.30;;;11.10;99.90;;;;;;5015442;28;20018;-90
2022/03/30 09:48:35;;;;;;;11.52;7.13;;;11.40;99.90;;;;;;5015134;28;20030;-90
2022/03/30 09:51:03;;;;;;;9.80;6.57;;;12.30;99.90;;;;;;5019312;28;20104;-90
2022/03/30 09:53:31;;;;;;;11.40;6.60;;;13.50;99.90;;;;;;5035336;28;20017;-90
2022/03/30 09:56:03;;;;;;;11.32;7.05;;;14.50;99.90;;;;;;5035735;28;20026;-90
2022/03/30 09:58:32;;;;;;;11.43;6.23;;;15.40;99.90;;;;;;5036040;28;20068;-90
2022/03/30 10:01:09;;;;;;;9.93;6.22;;;16.10;99.90;;;;;;5034743;28;20037;-89
2022/03/30 10:04:14;;;;;;;9.63;5.93;;;16.90;99.90;;;;;;5037322;28;20133;-92
2022/03/30 10:06:40;;;;;;;;;;;17.30;99.90;;;;;;5040645;28;20085;-90
2022/03/30 10:09:07;;;;;;;10.23;5.72;;;17.40;99.00;;;;;;5035237;28;19905;-91
2022/03/30 10:11:41;;;;;;;7.70;5.60;;;17.90;99.20;;;;;;5038038;28;20045;-87
2022/03/30 10:14:12;;;;;;;9.38;5.93;;;18.50;97.90;;;;;;5025087;28;20048;-88
2022/03/30 10:16:48;;;;;;;8.77;5.43;;;18.70;96.60;;;;;;5027455;28;20439;-86
2022/03/30 10:19:14;;;;;;;8.60;5.10;;;18.80;96.10;;;;;;5024773;28;20025;-86
2022/03/30 10:22:02;;;;;;;7.80;5.00;;;18.90;95.80;;;;;;5042153;28;20037;-84
2022/03/30 10:25:02;;;;;;;7.50;5.28;;;19.20;94.70;;;;;;5063846;28;20025;-89
2022/03/30 10:28:17;;;;;;;6.43;4.78;;;19.50;93.70;;;;;;5064512;28;20126;-86
2022/03/30 10:30:57;;;;;;;6.32;4.43;;;19.70;93.20;;;;;;5011891;28;20108;-86
2022/03/30 10:33:44;;;;;;;6.97;4.20;;;19.90;92.10;;;;;;5028152;28;20029;-89
2022/03/30 10:36:31;;;;;;;7.47;4.50;;;20.00;91.20;;;;;;5038623;28;20048;-89
2022/03/30 10:39:08;;;;;;;6.28;3.85;;;19.90;90.70;;;;;;5027355;28;20047;-89
2022/03/30 10:41:52;;;;;;;5.28;3.80;;;20.00;90.60;;;;;;5040886;28;20029;-89
2022/03/30 10:44:38;;;;;;;7.13;3.13;;;20.50;90.10;;;;;;5054944;28;20017;-89
2022/03/30 10:47:08;;;;;;;6.38;3.22;;;20.90;89.20;;;;;;5063525;28;20509;-91
2022/03/30 10:49:39;;;;;;;6.05;3.60;;;21.30;87.70;;;;;;5064046;28;20059;-89
2022/03/30 10:52:29;;;;;;;7.00;4.25;;;21.10;86.50;;;;;;5045104;28;20021;-86
2022/03/30 10:55:13;;;;;;;6.53;4.05;;;20.30;84.70;;;;;;5061851;28;20025;-89
2022/03/30 10:57:53;;;;;;;7.32;4.57;;;19.10;85.50;;;;;;5044952;28;20033;-89
2022/03/30 11:00:41;;;;;;;7.72;4.03;;;18.30;85.20;;;;;;5045559;28;20053;-88
2022/03/30 11:03:16;;;;;;;5.63;3.83;;;17.30;86.20;;;;;;5043152;28;20483;-91
2022/03/30 11:06:00;;;;;;;5.75;3.75;;;16.60;87.50;;;;;;5047289;28;20065;-88
2022/03/30 11:08:34;;;;;;;7.05;4.50;;;16.30;88.60;;;;;;5064238;28;20391;-88
2022/03/30 11:11:01;;;;;;;6.38;3.67;;;16.90;88.10;;;;;;5067512;28;20376;-88
2022/03/30 11:13:28;;;;;;;7.20;4.90;;;17.20;88.20;;;;;;5068920;28;20073;-87
2022/03/30 11:15:58;;;;;;;8.25;4.50;;;17.70;87.10;;;;;;5068624;28;20081;-87
2022/03/30 11:18:23;;;;;;;8.30;4.47;;;18.40;86.20;;;;;;5046148;28;20478;-89
2022/03/30 11:21:18;;;;;;;7.80;4.65;;;18.80;84.90;;;;;;5044689;28;20032;-87
2022/03/30 11:24:03;;;;;;;8.45;5.18;;;19.00;83.80;;;;;;5062602;28;20071;-90
2022/03/30 11:26:47;;;;;;;8.68;5.15;;;18.30;84.30;;;;;;5044690;28;20050;-88
2022/03/30 11:29:42;;;;;;;8.07;4.90;;;17.30;84.70;;;;;;5061448;28;20403;-87
2022/03/30 11:32:23;;;;;;;7.55;4.18;;;16.30;86.30;;;;;;5043293;28;20095;-90
2022/03/30 11:34:57;;;;;;;6.57;3.88;;;15.80;87.20;;;;;;5042152;28;20017;-88
2022/03/30 11:37:29;;;;;;;5.57;3.75;;;15.80;88.20;;;;;;5058509;28;20094;-89
2022/03/30 11:40:10;;;;;;;6.65;4.38;;;16.20;88.20;;;;;;5039666;28;20434;-89
2022/03/30 11:42:40;;;;;;;8.05;4.75;;;17.10;87.10;;;;;;5005936;28;20038;-88
2022/03/30 11:45:14;;;;;;;6.13;3.30;;;18.00;85.00;;;;;;5007972;28;20388;-90
2022/03/30 11:47:45;;;;;;;6.43;3.65;;;18.30;84.70;;;;;;5045228;28;20030;-88
2022/03/30 11:50:13;;;;;;;5.05;3.45;;;18.80;84.10;;;;;;5042736;28;20026;-88
2022/03/30 11:52:39;;;;;;;7.22;4.07;;;19.00;84.00;;;;;;5042386;28;20026;-89
2022/03/30 11:55:07;;;;;;;6.80;4.25;;;19.20;82.60;;;;;;5020724;28;20051;-89
2022/03/30 11:57:38;;;;;;;6.78;4.68;;;19.40;81.60;;;;;;5038471;28;20033;-87
2022/03/30 12:00:09;;;;;;;5.95;3.47;;;19.60;80.70;;;;;;5021057;28;20049;-88
2022/03/30 12:02:37;;;;;;;5.95;3.20;;;19.70;81.20;;;;;;5022516;28;20092;-86
2022/03/30 12:05:03;;;;;;;7.45;4.68;;;20.10;80.50;;;;;;5022111;28;20017;-87
2022/03/30 12:07:34;;;;;;;5.72;4.20;;;20.20;78.60;;;;;;5024442;28;20033;-88
2022/03/30 12:10:00;;;;;;;9.23;4.00;;;20.10;78.30;;;;;;5022542;28;20025;-86
2022/03/30 12:12:37;;;;;;;6.63;3.50;;;19.80;78.10;;;;;;5019822;28;20025;-88
2022/03/30 12:15:14;;;;;;;5.20;3.60;;;19.60;79.70;;;;;;5001305;28;20061;-89
2022/03/30 12:17:40;;;;;;;5.13;3.90;;;19.30;79.40;;;;;;5015933;28;20032;-87
2022/03/30 12:20:08;;;;;;;5.47;3.17;;;19.10;79.90;;;;;;5019444;28;20018;-88
2022/03/30 12:22:35;;;;;;;4.53;2.83;;;19.10;80.40;;;;;;5019710;28;20029;-90
2022/03/30 12:25:01;;;;;;;5.28;3.30;;;19.40;79.60;;;;;;5019525;28;20017;-88
2022/03/30 12:27:27;;;;;;;4.25;2.55;;;19.90;79.60;;;;;;5019305;28;20105;-87
2022/03/30 12:29:57;;;;;;;3.65;2.67;;;20.40;78.50;;;;;;5034020;28;20047;-88
2022/03/30 12:32:26;;;;;;;3.67;2.47;;;20.60;77.70;;;;;;5039245;28;20028;-88
2022/03/30 12:35:06;;;;;;;3.10;2.30;;;20.60;77.60;;;;;;5037045;28;20025;-90
2022/03/30 12:37:32;;;;;;;3.53;2.47;;;20.90;78.00;;;;;;5019954;28;20034;-89
2022/03/30 12:40:07;;;;;;;4.68;3.00;;;20.90;78.20;;;;;;5019627;28;20040;-88
2022/03/30 12:42:33;;;;;;;3.60;2.83;;;20.80;76.30;;;;;;5018660;28;20061;-89
2022/03/30 12:45:10;;;;;;;5.07;3.47;;;20.60;76.00;;;;;;5021288;28;20033;-92
2022/03/30 12:47:45;;;;;;;4.65;2.95;;;20.40;75.20;;;;;;5044316;28;20022;-90
2022/03/30 12:50:16;;;;;;;5.35;3.47;;;20.30;75.50;;;;;;5028242;28;20017;-91
2022/03/30 12:52:54;;;;;;;3.95;2.90;;;19.80;75.50;;;;;;5011486;28;20037;-92
2022/03/30 12:55:32;;;;;;;5.47;3.83;;;19.10;76.40;;;;;;5007773;28;20032;-93
2022/03/30 12:58:18;;;;;;;4.80;3.15;;;18.80;77.10;;;;;;4986124;28;20120;-90
2022/03/30 13:00:50;;;;;;;3.90;3.05;;;19.20;77.20;;;;;;5018153;28;20100;-89
2022/03/30 13:03:17;;;;;;;3.33;2.50;;;19.80;76.90;;;;;;5001523;28;20061;-88
2022/03/30 13:05:46;;;;;;;4.18;2.70;;;20.20;76.70;;;;;;4999485;28;20433;-90
2022/03/30 13:08:18;;;;;;;5.05;2.95;;;20.60;76.20;;;;;;5009662;28;20084;-91
2022/03/30 13:10:50;;;;;;;5.40;2.85;;;20.90;75.40;;;;;;5002009;28;20022;-89
2022/03/30 13:13:18;;;;;;;5.10;3.42;;;20.30;75.00;;;;;;5000807;28;20064;-90